createdAt,value
2023-01-31T00:00:50.187Z,99784.42
2023-01-31T00:03:25.414Z,99791.77
2023-01-31T00:05:54.381Z,99798.65
2023-01-31T00:08:22.686Z,99800.09
2023-01-31T00:10:51.052Z,99802.99
2023-01-31T00:13:19.348Z,99808.92
2023-01-31T00:15:47.825Z,99805.14
2023-01-31T00:18:16.269Z,99809.14
2023-01-31T00:20:44.775Z,99811.52
2023-01-31T00:23:13.782Z,99813.44
2023-01-31T00:25:42.741Z,99813.95
2023-01-31T00:28:11.304Z,99813.96
2023-01-31T00:30:39.625Z,99817.36
2023-01-31T00:33:07.935Z,99827.66
2023-01-31T00:35:40.184Z,99831.34
2023-01-31T00:38:08.595Z,99831.67
2023-01-31T00:40:37.286Z,99839.39
2023-01-31T00:43:05.601Z,99844.39
2023-01-31T00:45:34.671Z,99848.80
2023-01-31T00:48:06.358Z,99853.71
2023-01-31T00:50:35.337Z,99860.11
2023-01-31T00:53:04.461Z,99862.58
2023-01-31T00:55:33.017Z,99866.63
2023-01-31T00:58:01.906Z,99868.14
2023-01-31T01:00:30.604Z,99869.63
2023-01-31T01:02:59.046Z,99867.42
2023-01-31T01:05:27.724Z,99869.27
2023-01-31T01:07:56.047Z,99868.22
2023-01-31T01:10:24.531Z,99875.58
2023-01-31T01:12:52.907Z,99874.29
2023-01-31T01:15:21.511Z,99880.63
2023-01-31T01:17:51.106Z,99880.48
2023-01-31T01:20:20.273Z,99887.96
2023-01-31T01:22:48.628Z,99896.48
2023-01-31T01:25:16.956Z,99898.40
2023-01-31T01:27:45.046Z,99903.33
2023-01-31T01:30:13.903Z,99908.17
2023-01-31T01:32:42.355Z,99907.21
2023-01-31T01:35:14.043Z,99910.60
2023-01-31T01:37:42.431Z,99910.40
2023-01-31T01:40:11.245Z,99919.16
2023-01-31T01:42:39.582Z,99919.73
2023-01-31T01:45:18.824Z,99918.67
2023-01-31T01:47:53.057Z,99924.67
2023-01-31T01:50:38.802Z,99927.02
2023-01-31T01:53:12.984Z,99932.99
2023-01-31T01:55:46.542Z,99934.02
2023-01-31T01:58:20.348Z,99940.90
2023-01-31T02:00:49.541Z,99944.00
2023-01-31T02:03:18.227Z,99949.34
2023-01-31T02:05:50.052Z,99954.17
2023-01-31T02:08:21.845Z,99952.52
2023-01-31T02:10:56.609Z,99953.91
2023-01-31T02:13:26.057Z,99955.15
2023-01-31T02:15:55.381Z,99960.92
2023-01-31T02:18:25.610Z,99965.69
2023-01-31T02:21:24.345Z,99969.32
2023-01-31T02:24:20.187Z,99978.34
2023-01-31T02:27:26.062Z,99982.71
2023-01-31T02:30:35.091Z,99980.45
2023-01-31T02:33:15.937Z,99986.51
2023-01-31T02:35:50.481Z,99992.16
2023-01-31T02:38:31.580Z,99999.56
2023-01-31T02:41:31.455Z,100008.32
2023-01-31T02:44:53.165Z,100007.88
2023-01-31T02:47:33.219Z,100015.20
2023-01-31T02:50:16.966Z,100021.40
2023-01-31T02:53:04.101Z,100022.70
2023-01-31T02:56:00.008Z,100028.25
2023-01-31T02:58:31.600Z,100039.52
2023-01-31T03:01:04.374Z,100041.20
2023-01-31T03:03:35.701Z,100046.58
2023-01-31T03:06:23.570Z,100051.88
2023-01-31T03:08:57.599Z,100055.73
2023-01-31T03:12:04.621Z,100067.85
2023-01-31T03:14:52.921Z,100066.31
2023-01-31T03:17:33.344Z,100068.23
2023-01-31T03:20:14.221Z,100073.41
2023-01-31T03:22:48.900Z,100073.83
2023-01-31T03:25:21.222Z,100078.98
2023-01-31T03:27:56.480Z,100084.14
2023-01-31T03:30:38.279Z,100084.55
2023-01-31T03:33:18.172Z,100093.71
2023-01-31T03:35:56.990Z,100096.41
2023-01-31T03:38:36.869Z,100100.38
2023-01-31T03:41:43.683Z,100106.06
2023-01-31T03:44:19.165Z,100108.35
2023-01-31T03:46:53.018Z,100111.88
2023-01-31T03:49:24.036Z,100115.48
2023-01-31T03:51:58.488Z,100114.52
2023-01-31T03:54:32.620Z,100118.71
2023-01-31T03:57:11.616Z,100113.19
2023-01-31T03:59:43.482Z,100115.10
2023-01-31T04:02:16.348Z,100119.73
2023-01-31T04:04:51.236Z,100119.77
2023-01-31T04:07:19.499Z,100121.85
2023-01-31T04:09:47.663Z,100128.60
2023-01-31T04:12:16.445Z,100125.45
2023-01-31T04:14:44.903Z,100128.04
2023-01-31T04:17:13.457Z,100132.33
2023-01-31T04:19:41.652Z,100135.55
2023-01-31T04:22:10.595Z,100140.64
2023-01-31T04:24:39.229Z,100153.22
2023-01-31T04:27:07.524Z,100171.21
2023-01-31T04:29:35.767Z,100177.55
2023-01-31T04:32:07.041Z,100177.39
2023-01-31T04:34:35.729Z,100176.23
2023-01-31T04:37:04.406Z,100182.15
2023-01-31T04:39:33.311Z,100188.23
2023-01-31T04:42:01.827Z,100188.02
2023-01-31T04:45:56.423Z,100176.94
2023-01-31T04:48:25.122Z,100180.32
2023-01-31T04:50:53.694Z,100183.45
2023-01-31T04:53:22.481Z,100188.38
2023-01-31T04:55:53.851Z,100191.33
2023-01-31T04:58:23.700Z,100199.36
2023-01-31T05:00:54.296Z,100200.70
2023-01-31T05:03:22.987Z,100204.05
2023-01-31T05:05:51.908Z,100211.70
2023-01-31T05:08:20.377Z,100219.46
2023-01-31T05:10:48.742Z,100229.55
2023-01-31T05:13:23.211Z,100236.12
2023-01-31T05:15:54.916Z,100242.48
2023-01-31T05:18:23.172Z,100245.30
2023-01-31T05:20:52.640Z,100241.45
2023-01-31T05:23:21.200Z,100245.88
2023-01-31T05:25:51.093Z,100247.17
2023-01-31T05:28:19.749Z,100255.94
2023-01-31T05:30:48.317Z,100252.58
2023-01-31T05:33:16.694Z,100255.23
2023-01-31T05:35:45.069Z,100260.14
2023-01-31T05:38:13.680Z,100258.07
2023-01-31T05:40:42.343Z,100261.76
2023-01-31T05:43:11.269Z,100261.22
2023-01-31T05:45:39.536Z,100267.75
2023-01-31T05:48:07.715Z,100272.63
2023-01-31T05:50:36.217Z,100273.23
2023-01-31T05:53:04.419Z,100279.57
2023-01-31T05:55:32.594Z,100278.58
2023-01-31T05:58:01.567Z,100281.35
2023-01-31T06:00:30.993Z,100284.67
2023-01-31T06:03:01.082Z,100292.18
2023-01-31T06:05:30.088Z,100293.36
2023-01-31T06:07:58.941Z,100292.91
2023-01-31T06:10:28.460Z,100290.93
2023-01-31T06:12:56.728Z,100292.44
2023-01-31T06:15:25.066Z,100292.77
2023-01-31T06:17:53.385Z,100299.38
2023-01-31T06:20:21.983Z,100299.39
2023-01-31T06:22:50.295Z,100295.91
2023-01-31T06:25:19.081Z,100303.78
2023-01-31T06:27:47.779Z,100317.40
2023-01-31T06:30:16.199Z,100323.11
2023-01-31T06:32:45.168Z,100324.53
2023-01-31T06:35:13.517Z,100324.75
2023-01-31T06:37:41.942Z,100331.89
2023-01-31T06:40:14.315Z,100339.73
2023-01-31T06:42:42.538Z,100346.42
2023-01-31T06:45:13.278Z,100351.70
2023-01-31T06:47:44.206Z,100358.05
2023-01-31T06:50:13.622Z,100359.89
2023-01-31T06:52:42.204Z,100362.83
2023-01-31T06:55:16.965Z,100361.97
2023-01-31T06:57:49.407Z,100365.64
2023-01-31T07:00:22.365Z,100369.83
2023-01-31T07:02:51.167Z,100368.25
2023-01-31T07:05:21.141Z,100373.38
2023-01-31T07:07:50.320Z,100376.05
2023-01-31T07:10:18.649Z,100383.42
2023-01-31T07:12:47.094Z,100392.25
2023-01-31T07:15:15.556Z,100398.59
2023-01-31T07:17:44.993Z,100398.98
2023-01-31T07:20:13.508Z,100402.83
2023-01-31T07:22:42.092Z,100405.29
2023-01-31T07:25:10.815Z,100400.64
2023-01-31T07:27:42.873Z,100408.71
2023-01-31T07:30:12.274Z,100408.41
2023-01-31T07:32:40.663Z,100402.08
2023-01-31T07:35:10.080Z,100402.48
2023-01-31T07:37:39.645Z,100404.14
2023-01-31T07:40:08.970Z,100405.03
2023-01-31T07:42:37.385Z,100405.19
2023-01-31T07:45:22.360Z,100405.61
2023-01-31T07:47:52.025Z,100412.61
2023-01-31T07:50:21.069Z,100422.08
2023-01-31T07:52:52.513Z,100427.55
2023-01-31T07:55:21.745Z,100428.95
2023-01-31T07:57:51.674Z,100436.46
2023-01-31T08:00:39.785Z,100440.35
2023-01-31T08:03:34.036Z,100441.47
2023-01-31T08:06:11.084Z,100443.44
2023-01-31T08:08:41.845Z,100445.11
2023-01-31T08:11:12.063Z,100442.75
2023-01-31T08:13:41.429Z,100450.16
2023-01-31T08:16:15.282Z,100448.90
2023-01-31T08:18:44.067Z,100455.98
2023-01-31T08:21:13.713Z,100458.81
2023-01-31T08:23:44.878Z,100461.73
2023-01-31T08:26:14.822Z,100464.63
2023-01-31T08:28:44.298Z,100472.08
2023-01-31T08:31:19.266Z,100474.00
2023-01-31T08:33:48.273Z,100475.36
2023-01-31T08:36:32.770Z,100473.61
2023-01-31T08:39:02.689Z,100478.41
2023-01-31T08:41:34.594Z,100472.70
2023-01-31T08:44:07.505Z,100473.86
2023-01-31T08:46:41.301Z,100476.69
2023-01-31T08:49:14.132Z,100476.88
2023-01-31T08:51:43.797Z,100475.41
2023-01-31T08:54:14.779Z,100475.91
2023-01-31T08:56:47.080Z,100476.38
2023-01-31T08:59:15.467Z,100477.61
2023-01-31T09:01:48.629Z,100477.66
2023-01-31T09:04:18.018Z,100476.83
2023-01-31T09:06:47.405Z,100480.42
2023-01-31T09:09:15.883Z,100478.91
2023-01-31T09:11:44.466Z,100478.36
2023-01-31T09:14:13.007Z,100481.17
2023-01-31T09:16:43.487Z,100481.05
2023-01-31T09:19:12.580Z,100490.27
2023-01-31T09:21:40.791Z,100486.55
2023-01-31T09:24:12.211Z,100492.89
2023-01-31T09:26:40.942Z,100497.38
2023-01-31T09:29:09.690Z,100500.00
2023-01-31T09:31:39.075Z,100500.91
2023-01-31T09:34:08.146Z,100497.27
2023-01-31T09:36:36.779Z,100496.36
2023-01-31T09:39:05.643Z,100503.77
2023-01-31T09:41:57.623Z,100503.08
2023-01-31T09:44:33.475Z,100497.65
2023-01-31T09:47:22.785Z,100497.71
2023-01-31T09:50:00.939Z,100494.47
2023-01-31T09:52:31.914Z,100493.79
2023-01-31T09:55:00.599Z,100494.17
2023-01-31T09:58:06.522Z,100498.10
2023-01-31T10:00:48.110Z,100492.70
2023-01-31T10:03:31.821Z,100501.33
2023-01-31T10:06:21.647Z,100496.29
2023-01-31T10:09:05.321Z,100498.11
2023-01-31T10:11:44.127Z,100501.31
2023-01-31T10:14:22.275Z,100498.84
2023-01-31T10:17:13.813Z,100499.03
2023-01-31T10:19:55.613Z,100502.47
2023-01-31T10:22:55.940Z,100500.16
2023-01-31T10:25:46.081Z,100506.96
2023-01-31T10:28:18.330Z,100505.79
2023-01-31T10:30:55.937Z,100501.59
2023-01-31T10:33:52.386Z,100491.19
2023-01-31T10:36:36.917Z,100487.64
2023-01-31T10:39:30.266Z,100487.49
2023-01-31T10:42:27.777Z,100486.53
2023-01-31T10:45:19.888Z,100479.45
2023-01-31T10:47:54.706Z,100471.37
2023-01-31T10:50:32.647Z,100472.44
2023-01-31T10:53:33.669Z,100467.05
2023-01-31T10:56:20.328Z,100469.27
2023-01-31T10:58:50.747Z,100467.61
2023-01-31T11:01:19.646Z,100464.97
2023-01-31T11:03:51.833Z,100469.25
2023-01-31T11:06:21.757Z,100475.45
2023-01-31T11:08:55.015Z,100481.42
2023-01-31T11:11:26.278Z,100475.84
2023-01-31T11:14:03.380Z,100466.96
2023-01-31T11:16:38.092Z,100465.10
2023-01-31T11:19:44.236Z,100463.37
2023-01-31T11:22:26.328Z,100471.47
2023-01-31T11:24:56.349Z,100477.02
2023-01-31T11:27:33.628Z,100475.83
2023-01-31T11:30:04.435Z,100468.88
2023-01-31T11:32:37.389Z,100454.54
2023-01-31T11:35:25.731Z,100458.41
2023-01-31T11:37:56.593Z,100459.50
2023-01-31T11:40:37.509Z,100458.39
2023-01-31T11:43:24.190Z,100456.00
2023-01-31T11:46:01.169Z,100456.50
2023-01-31T11:48:45.727Z,100447.77
2023-01-31T11:51:31.306Z,100445.92
2023-01-31T11:53:59.960Z,100441.52
2023-01-31T11:56:35.153Z,100432.66
2023-01-31T11:59:11.302Z,100428.85
2023-01-31T12:01:49.657Z,100425.73
2023-01-31T12:04:25.159Z,100422.39
2023-01-31T12:07:06.242Z,100418.70
2023-01-31T12:09:44.475Z,100414.63
2023-01-31T12:12:27.786Z,100409.45
2023-01-31T12:15:01.790Z,100407.38
2023-01-31T12:17:48.725Z,100406.70
2023-01-31T12:20:39.875Z,100403.88
2023-01-31T12:23:58.879Z,100391.69
2023-01-31T12:26:58.834Z,100389.30
2023-01-31T12:30:03.034Z,100385.30
2023-01-31T12:32:44.627Z,100373.28
2023-01-31T12:35:35.633Z,100373.20
2023-01-31T12:38:18.725Z,100368.59
2023-01-31T12:41:10.446Z,100363.77
2023-01-31T12:44:00.452Z,100358.83
2023-01-31T12:46:45.286Z,100361.20
2023-01-31T12:49:38.241Z,100360.90
2023-01-31T12:52:23.821Z,100361.08
2023-01-31T12:55:08.385Z,100362.42
2023-01-31T12:58:04.888Z,100360.60
2023-01-31T13:00:45.101Z,100355.88
2023-01-31T13:03:50.757Z,100352.98
2023-01-31T13:06:28.766Z,100355.73
2023-01-31T13:09:13.764Z,100350.59
2023-01-31T13:11:51.743Z,100343.35
2023-01-31T13:14:30.799Z,100338.63
2023-01-31T13:17:02.372Z,100334.70
2023-01-31T13:19:54.492Z,100327.80
2023-01-31T13:22:28.257Z,100320.70
2023-01-31T13:25:30.358Z,100312.52
2023-01-31T13:28:15.841Z,100300.15
2023-01-31T13:30:54.142Z,100297.66
2023-01-31T13:33:49.895Z,100290.85
2023-01-31T13:36:32.635Z,100292.05
2023-01-31T13:39:06.538Z,100286.85
2023-01-31T13:41:35.127Z,100286.83
2023-01-31T13:44:04.921Z,100278.55
2023-01-31T13:46:39.282Z,100270.35
2023-01-31T13:49:18.647Z,100270.59
2023-01-31T13:51:53.154Z,100270.73
2023-01-31T13:54:27.074Z,100264.98
2023-01-31T13:56:58.753Z,100263.65
2023-01-31T13:59:30.477Z,100261.25
2023-01-31T14:02:03.411Z,100263.29
2023-01-31T14:04:39.877Z,100266.39
2023-01-31T14:07:18.441Z,100260.30
2023-01-31T14:10:26.200Z,100252.48
2023-01-31T14:13:28.423Z,100252.02
2023-01-31T14:15:58.559Z,100241.40
2023-01-31T14:18:40.673Z,100245.66
2023-01-31T14:21:30.735Z,100242.25
2023-01-31T14:24:00.945Z,100240.34
2023-01-31T14:26:53.862Z,100236.67
2023-01-31T14:29:24.980Z,100234.95
2023-01-31T14:31:57.394Z,100238.06
2023-01-31T14:34:29.871Z,100237.20
2023-01-31T14:37:15.487Z,100234.84
2023-01-31T14:40:10.161Z,100234.23
2023-01-31T14:43:00.418Z,100225.45
2023-01-31T14:46:08.536Z,100226.25
2023-01-31T14:49:03.956Z,100222.21
2023-01-31T14:52:29.647Z,100221.48
2023-01-31T14:55:09.802Z,100218.30
2023-01-31T14:57:48.636Z,100217.77
2023-01-31T15:00:30.828Z,100213.22
2023-01-31T15:03:13.324Z,100209.33
2023-01-31T15:05:48.855Z,100201.13
2023-01-31T15:08:17.311Z,100196.31
2023-01-31T15:11:04.102Z,100198.96
2023-01-31T15:13:53.469Z,100198.68
2023-01-31T15:16:26.162Z,100199.87
2023-01-31T15:19:13.772Z,100202.77
2023-01-31T15:22:00.766Z,100201.05
2023-01-31T15:24:32.745Z,100201.89
2023-01-31T15:27:03.442Z,100202.86
2023-01-31T15:29:51.350Z,100199.11
2023-01-31T15:32:27.710Z,100193.56
2023-01-31T15:35:06.767Z,100195.23
2023-01-31T15:37:37.379Z,100190.77
2023-01-31T15:40:19.431Z,100186.89
2023-01-31T15:42:48.079Z,100183.73
2023-01-31T15:45:28.068Z,100183.03
2023-01-31T15:48:14.282Z,100173.96
2023-01-31T15:51:15.501Z,100174.33
2023-01-31T15:53:47.515Z,100167.12
2023-01-31T15:56:21.125Z,100161.54
2023-01-31T15:58:54.205Z,100157.52
2023-01-31T16:01:22.764Z,100151.55
2023-01-31T16:03:55.230Z,100146.60
2023-01-31T16:06:30.482Z,100141.57
2023-01-31T16:09:01.356Z,100139.73
2023-01-31T16:11:34.225Z,100132.98
2023-01-31T16:14:06.591Z,100129.70
2023-01-31T16:16:36.382Z,100132.46
2023-01-31T16:19:05.610Z,100132.51
2023-01-31T16:21:42.093Z,100123.21
2023-01-31T16:24:24.893Z,100117.07
2023-01-31T16:27:19.302Z,100115.38
2023-01-31T16:29:57.684Z,100106.73
2023-01-31T16:32:33.684Z,100099.68
2023-01-31T16:35:24.227Z,100089.71
2023-01-31T16:38:20.988Z,100086.98
2023-01-31T16:40:53.572Z,100086.98
2023-01-31T16:43:25.108Z,100082.14
2023-01-31T16:46:09.128Z,100075.77
2023-01-31T16:48:41.638Z,100072.10
2023-01-31T16:51:26.069Z,100064.91
2023-01-31T16:54:28.732Z,100054.60
2023-01-31T16:57:03.132Z,100046.26
2023-01-31T16:59:34.469Z,100037.94
2023-01-31T17:02:13.033Z,100037.77
2023-01-31T17:04:43.143Z,100030.26
2023-01-31T17:07:19.807Z,100023.73
2023-01-31T17:09:49.891Z,100026.19
2023-01-31T17:12:27.987Z,100021.10
2023-01-31T17:15:02.900Z,100014.81
2023-01-31T17:17:35.391Z,100017.48
2023-01-31T17:20:04.954Z,100008.27
2023-01-31T17:22:34.717Z,99996.78
2023-01-31T17:25:03.291Z,99985.42
2023-01-31T17:27:31.742Z,99973.52
2023-01-31T17:30:03.470Z,99963.86
2023-01-31T17:32:32.401Z,99954.57
2023-01-31T17:35:02.078Z,99948.41
2023-01-31T17:37:33.262Z,99937.55
2023-01-31T17:40:02.004Z,99935.60
2023-01-31T17:42:30.820Z,99930.59
2023-01-31T17:44:59.134Z,99927.02
2023-01-31T17:47:27.963Z,99929.53
2023-01-31T17:49:57.542Z,99926.98
2023-01-31T17:52:29.104Z,99925.38
2023-01-31T17:54:57.473Z,99913.45
2023-01-31T17:57:26.232Z,99911.45
2023-01-31T17:59:57.488Z,99908.91
2023-01-31T18:02:26.076Z,99896.59
2023-01-31T18:04:54.496Z,99888.09
2023-01-31T18:07:23.104Z,99876.41
2023-01-31T18:09:54.885Z,99870.28
2023-01-31T18:12:23.178Z,99868.45
2023-01-31T18:14:54.165Z,99859.98
2023-01-31T18:17:23.785Z,99858.86
2023-01-31T18:19:52.499Z,99854.19
2023-01-31T18:22:21.049Z,99848.64
2023-01-31T18:24:50.084Z,99847.94
2023-01-31T18:27:18.787Z,99853.56
2023-01-31T18:29:47.362Z,99846.78
2023-01-31T18:32:17.056Z,99834.98
2023-01-31T18:34:46.321Z,99838.40
2023-01-31T18:37:20.718Z,99837.28
2023-01-31T18:39:50.531Z,99814.70
2023-01-31T18:42:19.936Z,99811.14
2023-01-31T18:44:48.417Z,99803.08
2023-01-31T18:47:17.155Z,99795.00
2023-01-31T18:49:46.050Z,99788.46
2023-01-31T18:52:14.550Z,99785.32
2023-01-31T18:54:43.251Z,99782.77
2023-01-31T18:57:11.751Z,99777.77
2023-01-31T18:59:40.287Z,99773.17
2023-01-31T19:02:14.281Z,99774.72
2023-01-31T19:04:42.885Z,99775.45
2023-01-31T19:07:11.430Z,99766.73
2023-01-31T19:09:39.836Z,99766.81
2023-01-31T19:12:11.093Z,99756.87
2023-01-31T19:14:39.829Z,99751.92
2023-01-31T19:17:08.434Z,99747.26
2023-01-31T19:19:40.162Z,99745.42
2023-01-31T19:22:09.338Z,99742.23
2023-01-31T19:24:38.263Z,99738.23
2023-01-31T19:27:09.751Z,99739.94
2023-01-31T19:29:39.858Z,99731.88
2023-01-31T19:32:08.495Z,99723.04
2023-01-31T19:34:37.752Z,99729.40
2023-01-31T19:37:06.600Z,99726.98
2023-01-31T19:39:35.124Z,99724.80
2023-01-31T19:42:05.129Z,99720.64
2023-01-31T19:44:39.316Z,99715.48
2023-01-31T19:47:07.914Z,99715.98
2023-01-31T19:49:36.428Z,99712.39
2023-01-31T19:52:08.236Z,99701.01
2023-01-31T19:54:39.519Z,99694.04
2023-01-31T19:57:07.970Z,99693.10
2023-01-31T19:59:36.493Z,99687.70
2023-01-31T20:02:04.906Z,99684.84
2023-01-31T20:04:33.634Z,99679.71
2023-01-31T20:07:04.670Z,99672.98
2023-01-31T20:09:33.029Z,99678.80
2023-01-31T20:12:02.748Z,99673.23
2023-01-31T20:14:31.632Z,99665.28
2023-01-31T20:17:00.069Z,99653.02
2023-01-31T20:19:28.701Z,99646.38
2023-01-31T20:21:57.077Z,99641.80
2023-01-31T20:24:26.047Z,99633.33
2023-01-31T20:26:54.711Z,99625.84
2023-01-31T20:29:23.105Z,99625.61
2023-01-31T20:31:51.595Z,99625.05
2023-01-31T20:34:20.334Z,99632.95
2023-01-31T20:36:48.494Z,99629.89
2023-01-31T20:39:16.914Z,99627.61
2023-01-31T20:41:47.070Z,99619.02
2023-01-31T20:44:15.870Z,99615.30
2023-01-31T20:46:44.583Z,99608.02
2023-01-31T20:49:13.105Z,99603.29
2023-01-31T20:51:43.471Z,99607.53
2023-01-31T20:54:14.728Z,99609.88
2023-01-31T20:56:43.623Z,99607.90
2023-01-31T20:59:13.062Z,99608.17
2023-01-31T21:01:43.646Z,99602.37
2023-01-31T21:04:13.698Z,99606.45
2023-01-31T21:06:42.685Z,99608.59
2023-01-31T21:09:12.114Z,99610.23
2023-01-31T21:11:40.519Z,99609.58
2023-01-31T21:14:09.111Z,99609.95
2023-01-31T21:16:39.623Z,99616.14
2023-01-31T21:19:08.868Z,99622.82
2023-01-31T21:21:37.503Z,99659.46
2023-01-31T21:24:06.558Z,99706.02
2023-01-31T21:26:36.415Z,99716.40
2023-01-31T21:29:05.463Z,99710.23
2023-01-31T21:31:34.418Z,99695.73
2023-01-31T21:34:06.122Z,99693.48
2023-01-31T21:36:36.600Z,99687.06
2023-01-31T21:39:05.998Z,99681.52
2023-01-31T21:41:53.531Z,99675.67
2023-01-31T21:44:22.047Z,99664.41
2023-01-31T21:46:50.995Z,99658.95
2023-01-31T21:49:19.536Z,99661.19
2023-01-31T21:51:48.011Z,99652.92
2023-01-31T21:54:16.747Z,99652.41
2023-01-31T21:56:45.921Z,99655.64
2023-01-31T21:59:14.536Z,99653.50
2023-01-31T22:01:42.838Z,99654.98
2023-01-31T22:04:11.553Z,99657.55
2023-01-31T22:06:42.326Z,99658.17
2023-01-31T22:09:13.360Z,99663.86
2023-01-31T22:11:44.540Z,99667.23
2023-01-31T22:14:14.989Z,99675.86
2023-01-31T22:16:46.839Z,99686.34
2023-01-31T22:19:15.077Z,99690.07
2023-01-31T22:21:43.653Z,99687.75
2023-01-31T22:24:15.660Z,99684.26
2023-01-31T22:26:44.910Z,99680.81
2023-01-31T22:29:16.945Z,99677.98
2023-01-31T22:31:46.608Z,99674.45
2023-01-31T22:34:16.401Z,99676.85
2023-01-31T22:36:44.830Z,99674.38
2023-01-31T22:39:16.278Z,99671.91
2023-01-31T22:41:44.913Z,99670.42
2023-01-31T22:44:14.743Z,99664.85
2023-01-31T22:46:43.110Z,99662.27
2023-01-31T22:49:12.867Z,99660.31
2023-01-31T22:51:41.205Z,99662.61
2023-01-31T22:54:11.160Z,99663.71
2023-01-31T22:56:39.611Z,99663.56
2023-01-31T22:59:09.787Z,99667.26
2023-01-31T23:01:41.050Z,99666.27
2023-01-31T23:04:11.163Z,99665.11
2023-01-31T23:06:39.531Z,99669.10
2023-01-31T23:09:10.645Z,99666.00
2023-01-31T23:11:39.362Z,99669.42
2023-01-31T23:14:07.688Z,99674.10
2023-01-31T23:16:54.416Z,99672.86
2023-01-31T23:19:24.554Z,99663.63
2023-01-31T23:21:52.819Z,99659.00
2023-01-31T23:24:21.471Z,99653.18
2023-01-31T23:26:54.532Z,99646.65
2023-01-31T23:29:22.731Z,99648.05
2023-01-31T23:31:51.190Z,99653.52
2023-01-31T23:34:20.766Z,99648.02
2023-01-31T23:36:48.926Z,99650.04
2023-01-31T23:39:17.439Z,99637.39
2023-01-31T23:41:45.990Z,99636.00
2023-01-31T23:44:14.186Z,99636.75
2023-01-31T23:46:43.591Z,99632.92
2023-01-31T23:49:12.429Z,99641.06
2023-01-31T23:51:41.800Z,99643.09
2023-01-31T23:54:10.733Z,99637.86
2023-01-31T23:56:39.262Z,99645.38
2023-01-31T23:59:07.906Z,99647.66
